Munising, Michigan
Current Conditions -  °F | °C
As of 3:50 PM on Thursday 27 Nov 2014 (Local Time) from KSAW Reporting Station
Broken Clouds Broken Clouds  
Wind Chill: -1°   Ceiling: 3100
Heat Index: 12°   Visibility: 10mi
Dew Point:   Wind: 10mph
Humidity: 62%   Direction: 340°NNW
Pressure: 30.29"   Gusts: NA
Location:  46.41°N, 86.65°W
Report Text: KSAW 272050Z 34009KT 10SM SCT020 BKN031 M11/M17 A3029
Loading
Personal Weather Stations






























Interactive Weather Map New forecast layout! Learn more

10-Day Weather Forecast

Advertisements
Track Severe Weather on mobile